sensor_id;sensor_type;location;lat;lon;timestamp;pressure;altitude;pressure_sealevel;temperature;humidity
39301;BME280;25019;42.626;23.380;2022-12-13T00:01:29;93866.28;;;-1.89;100.00
39301;BME280;25019;42.626;23.380;2022-12-13T00:03:57;93856.22;;;-1.92;100.00
39301;BME280;25019;42.626;23.380;2022-12-13T00:06:23;93805.50;;;-2.40;100.00
39301;BME280;25019;42.626;23.380;2022-12-13T00:08:49;93802.63;;;-2.45;100.00
39301;BME280;25019;42.626;23.380;2022-12-13T00:11:14;93867.50;;;-2.07;100.00
39301;BME280;25019;42.626;23.380;2022-12-13T00:13:41;93881.44;;;-2.15;100.00
39301;BME280;25019;42.626;23.380;2022-12-13T00:16:10;93882.41;;;-2.16;100.00
39301;BME280;25019;42.626;23.380;2022-12-13T00:18:36;93888.78;;;-2.18;100.00
39301;BME280;25019;42.626;23.380;2022-12-13T00:21:10;93860.53;;;-2.36;100.00
39301;BME280;25019;42.626;23.380;2022-12-13T00:23:37;93843.19;;;-2.51;100.00
39301;BME280;25019;42.626;23.380;2022-12-13T00:26:10;93884.69;;;-2.28;100.00
39301;BME280;25019;42.626;23.380;2022-12-13T00:28:37;93830.00;;;-2.64;100.00
39301;BME280;25019;42.626;23.380;2022-12-13T00:31:03;93894.19;;;-2.20;100.00
39301;BME280;25019;42.626;23.380;2022-12-13T00:33:28;93835.94;;;-2.56;100.00
39301;BME280;25019;42.626;23.380;2022-12-13T00:35:54;93835.94;;;-2.56;100.00
39301;BME280;25019;42.626;23.380;2022-12-13T00:38:21;93846.13;;;-2.39;100.00
39301;BME280;25019;42.626;23.380;2022-12-13T00:40:46;93881.78;;;-2.18;100.00
39301;BME280;25019;42.626;23.380;2022-12-13T00:43:12;93832.34;;;-2.54;100.00
39301;BME280;25019;42.626;23.380;2022-12-13T00:45:38;93787.00;;;-2.82;100.00
39301;BME280;25019;42.626;23.380;2022-12-13T00:48:05;93803.75;;;-2.69;100.00
39301;BME280;25019;42.626;23.380;2022-12-13T00:50:31;93895.97;;;-2.20;100.00
39301;BME280;25019;42.626;23.380;2022-12-13T00:52:58;93745.00;;;-3.16;100.00
39301;BME280;25019;42.626;23.380;2022-12-13T00:55:24;93856.97;;;-2.50;100.00
39301;BME280;25019;42.626;23.380;2022-12-13T00:57:50;93801.53;;;-2.88;100.00
39301;BME280;25019;42.626;23.380;2022-12-13T01:00:16;93810.75;;;-2.85;100.00
39301;BME280;25019;42.626;23.380;2022-12-13T01:02:42;93790.78;;;-2.99;100.00
39301;BME280;25019;42.626;23.380;2022-12-13T01:05:09;93899.66;;;-2.30;100.00
39301;BME280;25019;42.626;23.380;2022-12-13T01:07:36;93896.72;;;-2.27;100.00
39301;BME280;25019;42.626;23.380;2022-12-13T01:10:03;93895.25;;;-2.29;100.00
39301;BME280;25019;42.626;23.380;2022-12-13T01:12:29;93881.09;;;-2.42;100.00
39301;BME280;25019;42.626;23.380;2022-12-13T01:14:54;93901.91;;;-2.27;100.00
39301;BME280;25019;42.626;23.380;2022-12-13T01:17:20;93900.91;;;-2.26;100.00
39301;BME280;25019;42.626;23.380;2022-12-13T01:19:46;93909.34;;;-2.23;100.00
39301;BME280;25019;42.626;23.380;2022-12-13T01:22:11;93907.75;;;-2.24;100.00
39301;BME280;25019;42.626;23.380;2022-12-13T01:24:37;93822.38;;;-2.81;100.00
39301;BME280;25019;42.626;23.380;2022-12-13T01:27:03;93904.50;;;-2.27;100.00
39301;BME280;25019;42.626;23.380;2022-12-13T01:29:29;93839.41;;;-2.78;100.00
39301;BME280;25019;42.626;23.380;2022-12-13T01:31:54;93914.91;;;-2.27;100.00
39301;BME280;25019;42.626;23.380;2022-12-13T01:34:21;93913.94;;;-2.26;100.00
39301;BME280;25019;42.626;23.380;2022-12-13T01:36:48;93881.75;;;-2.39;100.00
39301;BME280;25019;42.626;23.380;2022-12-13T01:39:17;93885.31;;;-2.41;100.00
39301;BME280;25019;42.626;23.380;2022-12-13T01:41:47;93868.56;;;-2.53;100.00
39301;BME280;25019;42.626;23.380;2022-12-13T01:47:21;93900.31;;;-2.43;100.00
39301;BME280;25019;42.626;23.380;2022-12-13T01:49:48;93900.66;;;-2.46;100.00
39301;BME280;25019;42.626;23.380;2022-12-13T01:52:16;93907.41;;;-2.51;100.00
39301;BME280;25019;42.626;23.380;2022-12-13T01:54:45;93842.47;;;-2.90;100.00
39301;BME280;25019;42.626;23.380;2022-12-13T01:57:14;93836.00;;;-2.94;100.00
39301;BME280;25019;42.626;23.380;2022-12-13T01:59:42;93822.13;;;-3.01;100.00
39301;BME280;25019;42.626;23.380;2022-12-13T02:02:10;93835.66;;;-3.06;100.00
39301;BME280;25019;42.626;23.380;2022-12-13T02:04:49;93893.75;;;-2.68;100.00
39301;BME280;25019;42.626;23.380;2022-12-13T02:07:23;93912.84;;;-2.61;100.00
39301;BME280;25019;42.626;23.380;2022-12-13T02:09:54;93911.75;;;-2.67;100.00
39301;BME280;25019;42.626;23.380;2022-12-13T02:12:21;93904.88;;;-2.75;100.00
39301;BME280;25019;42.626;23.380;2022-12-13T02:14:47;93905.41;;;-2.79;100.00
39301;BME280;25019;42.626;23.380;2022-12-13T02:26:28;93812.69;;;-3.32;100.00
39301;BME280;25019;42.626;23.380;2022-12-13T02:31:39;93786.44;;;-3.52;100.00
39301;BME280;25019;42.626;23.380;2022-12-13T02:34:17;93919.41;;;-2.65;100.00
39301;BME280;25019;42.626;23.380;2022-12-13T02:37:04;93922.44;;;-2.62;100.00
39301;BME280;25019;42.626;23.380;2022-12-13T02:39:40;93923.72;;;-2.58;100.00
39301;BME280;25019;42.626;23.380;2022-12-13T02:42:20;93927.19;;;-2.50;100.00
39301;BME280;25019;42.626;23.380;2022-12-13T02:45:06;93910.34;;;-2.54;100.00
39301;BME280;25019;42.626;23.380;2022-12-13T02:47:36;93922.09;;;-2.44;100.00
39301;BME280;25019;42.626;23.380;2022-12-13T02:50:05;93921.09;;;-2.43;100.00
39301;BME280;25019;42.626;23.380;2022-12-13T02:52:32;93853.78;;;-2.82;100.00
39301;BME280;25019;42.626;23.380;2022-12-13T02:54:59;93933.56;;;-2.38;100.00
39301;BME280;25019;42.626;23.380;2022-12-13T02:59:57;93837.63;;;-2.93;100.00
39301;BME280;25019;42.626;23.380;2022-12-13T03:02:47;93896.72;;;-2.57;100.00
39301;BME280;25019;42.626;23.380;2022-12-13T03:05:17;93933.38;;;-2.36;100.00
39301;BME280;25019;42.626;23.380;2022-12-13T03:13:51;93875.56;;;-2.83;100.00
39301;BME280;25019;42.626;23.380;2022-12-13T03:18:44;93942.25;;;-2.61;100.00
39301;BME280;25019;42.626;23.380;2022-12-13T03:21:11;93938.84;;;-2.61;100.00
39301;BME280;25019;42.626;23.380;2022-12-13T03:23:37;93934.81;;;-2.64;100.00
39301;BME280;25019;42.626;23.380;2022-12-13T03:26:10;93933.81;;;-2.63;100.00
39301;BME280;25019;42.626;23.380;2022-12-13T03:28:37;93774.69;;;-3.63;100.00
39301;BME280;25019;42.626;23.380;2022-12-13T03:31:03;93932.75;;;-2.68;100.00
39301;BME280;25019;42.626;23.380;2022-12-13T03:33:29;93877.56;;;-3.09;100.00
39301;BME280;25019;42.626;23.380;2022-12-13T03:35:55;93838.09;;;-3.42;100.00
39301;BME280;25019;42.626;23.380;2022-12-13T03:38:21;93932.72;;;-2.83;100.00
39301;BME280;25019;42.626;23.380;2022-12-13T03:40:48;93920.25;;;-2.88;100.00
39301;BME280;25019;42.626;23.380;2022-12-13T03:43:14;93858.28;;;-3.29;100.00
39301;BME280;25019;42.626;23.380;2022-12-13T03:45:39;93904.41;;;-2.93;100.00
39301;BME280;25019;42.626;23.380;2022-12-13T03:48:05;93937.56;;;-2.80;100.00
39301;BME280;25019;42.626;23.380;2022-12-13T03:50:31;93910.31;;;-2.99;100.00
39301;BME280;25019;42.626;23.380;2022-12-13T03:53:00;93934.06;;;-2.88;100.00
39301;BME280;25019;42.626;23.380;2022-12-13T03:55:26;93848.00;;;-3.46;100.00
39301;BME280;25019;42.626;23.380;2022-12-13T03:57:52;93936.03;;;-2.90;100.00
39301;BME280;25019;42.626;23.380;2022-12-13T04:00:18;93897.97;;;-3.21;100.00
39301;BME280;25019;42.626;23.380;2022-12-13T04:02:44;93946.78;;;-2.93;100.00
39301;BME280;25019;42.626;23.380;2022-12-13T04:05:09;93945.50;;;-2.97;100.00
39301;BME280;25019;42.626;23.380;2022-12-13T04:07:35;93934.72;;;-3.09;100.00
39301;BME280;25019;42.626;23.380;2022-12-13T04:10:02;93873.38;;;-3.71;100.00
39301;BME280;25019;42.626;23.380;2022-12-13T04:12:28;93939.13;;;-3.33;100.00
39301;BME280;25019;42.626;23.380;2022-12-13T04:15:12;93948.13;;;-3.43;100.00
39301;BME280;25019;42.626;23.380;2022-12-13T04:17:38;93949.47;;;-3.48;100.00
39301;BME280;25019;42.626;23.380;2022-12-13T04:20:04;93964.50;;;-3.43;100.00
39301;BME280;25019;42.626;23.380;2022-12-13T04:22:30;93965.50;;;-3.44;100.00
39301;BME280;25019;42.626;23.380;2022-12-13T04:24:55;93970.13;;;-3.54;100.00
39301;BME280;25019;42.626;23.380;2022-12-13T04:27:21;93919.91;;;-3.93;100.00
39301;BME280;25019;42.626;23.380;2022-12-13T04:29:46;93912.94;;;-4.01;100.00
39301;BME280;25019;42.626;23.380;2022-12-13T04:32:12;93992.38;;;-3.60;100.00
39301;BME280;25019;42.626;23.380;2022-12-13T04:34:38;93906.03;;;-4.09;100.00
39301;BME280;25019;42.626;23.380;2022-12-13T04:37:04;93839.19;;;-4.61;100.00
39301;BME280;25019;42.626;23.380;2022-12-13T04:39:30;94001.91;;;-3.52;100.00
39301;BME280;25019;42.626;23.380;2022-12-13T04:41:55;93939.72;;;-4.00;100.00
39301;BME280;25019;42.626;23.380;2022-12-13T04:44:21;94015.22;;;-3.55;100.00
39301;BME280;25019;42.626;23.380;2022-12-13T04:46:46;93984.69;;;-3.77;100.00
39301;BME280;25019;42.626;23.380;2022-12-13T04:49:12;93979.84;;;-3.88;100.00
39301;BME280;25019;42.626;23.380;2022-12-13T04:51:38;94020.16;;;-3.69;100.00
39301;BME280;25019;42.626;23.380;2022-12-13T04:54:04;93938.50;;;-4.21;100.00
39301;BME280;25019;42.626;23.380;2022-12-13T04:56:29;94004.00;;;-3.79;100.00
39301;BME280;25019;42.626;23.380;2022-12-13T04:58:55;94008.56;;;-3.81;100.00
39301;BME280;25019;42.626;23.380;2022-12-13T05:01:20;94024.75;;;-3.79;100.00
39301;BME280;25019;42.626;23.380;2022-12-13T05:03:46;94018.94;;;-3.89;100.00
39301;BME280;25019;42.626;23.380;2022-12-13T05:06:13;94021.88;;;-3.93;100.00
39301;BME280;25019;42.626;23.380;2022-12-13T05:08:39;94024.47;;;-3.93;100.00
39301;BME280;25019;42.626;23.380;2022-12-13T05:11:06;94021.56;;;-3.98;100.00
39301;BME280;25019;42.626;23.380;2022-12-13T05:13:33;93931.31;;;-4.59;100.00
39301;BME280;25019;42.626;23.380;2022-12-13T05:16:00;94029.03;;;-4.03;100.00
39301;BME280;25019;42.626;23.380;2022-12-13T05:18:27;94035.19;;;-4.04;100.00
39301;BME280;25019;42.626;23.380;2022-12-13T05:20:53;94034.72;;;-3.99;100.00
39301;BME280;25019;42.626;23.380;2022-12-13T05:23:21;94039.41;;;-4.03;100.00
39301;BME280;25019;42.626;23.380;2022-12-13T05:25:47;94003.03;;;-4.26;100.00
39301;BME280;25019;42.626;23.380;2022-12-13T05:28:13;94039.59;;;-4.04;100.00
39301;BME280;25019;42.626;23.380;2022-12-13T05:30:40;94042.00;;;-4.03;100.00
39301;BME280;25019;42.626;23.380;2022-12-13T05:33:06;94032.28;;;-4.01;100.00
39301;BME280;25019;42.626;23.380;2022-12-13T05:35:32;94040.69;;;-3.91;100.00
39301;BME280;25019;42.626;23.380;2022-12-13T05:37:58;94030.97;;;-3.97;100.00
39301;BME280;25019;42.626;23.380;2022-12-13T05:40:28;94044.69;;;-3.80;100.00
39301;BME280;25019;42.626;23.380;2022-12-13T05:42:54;94028.72;;;-4.00;100.00
39301;BME280;25019;42.626;23.380;2022-12-13T05:45:20;94059.94;;;-3.77;100.00
39301;BME280;25019;42.626;23.380;2022-12-13T05:47:46;94057.16;;;-3.75;100.00
39301;BME280;25019;42.626;23.380;2022-12-13T05:50:13;94062.66;;;-3.70;100.00
39301;BME280;25019;42.626;23.380;2022-12-13T05:52:39;94069.97;;;-3.65;100.00
39301;BME280;25019;42.626;23.380;2022-12-13T05:55:05;94070.63;;;-3.71;100.00
39301;BME280;25019;42.626;23.380;2022-12-13T05:57:30;94077.78;;;-3.73;100.00
39301;BME280;25019;42.626;23.380;2022-12-13T05:59:56;93986.97;;;-4.30;100.00
39301;BME280;25019;42.626;23.380;2022-12-13T06:02:22;93997.22;;;-4.37;100.00
39301;BME280;25019;42.626;23.380;2022-12-13T06:04:48;94074.25;;;-3.89;100.00
39301;BME280;25019;42.626;23.380;2022-12-13T06:07:13;94053.03;;;-4.01;100.00
39301;BME280;25019;42.626;23.380;2022-12-13T06:09:39;94078.31;;;-3.86;100.00
39301;BME280;25019;42.626;23.380;2022-12-13T06:12:05;94067.28;;;-3.88;100.00
39301;BME280;25019;42.626;23.380;2022-12-13T06:14:31;94077.31;;;-3.85;100.00
39301;BME280;25019;42.626;23.380;2022-12-13T06:16:57;94068.06;;;-3.88;100.00
39301;BME280;25019;42.626;23.380;2022-12-13T06:19:23;93987.66;;;-4.36;100.00
39301;BME280;25019;42.626;23.380;2022-12-13T06:21:51;94085.53;;;-3.65;100.00
39301;BME280;25019;42.626;23.380;2022-12-13T06:24:18;94006.59;;;-4.19;100.00
39301;BME280;25019;42.626;23.380;2022-12-13T06:26:45;94060.59;;;-3.83;100.00
39301;BME280;25019;42.626;23.380;2022-12-13T06:29:15;94076.47;;;-3.69;100.00
39301;BME280;25019;42.626;23.380;2022-12-13T06:31:41;94072.06;;;-3.69;100.00
39301;BME280;25019;42.626;23.380;2022-12-13T06:34:07;94072.28;;;-3.47;100.00
39301;BME280;25019;42.626;23.380;2022-12-13T06:36:32;94078.56;;;-3.33;100.00
39301;BME280;25019;42.626;23.380;2022-12-13T06:39:05;94090.56;;;-3.32;100.00
39301;BME280;25019;42.626;23.380;2022-12-13T06:41:32;94092.50;;;-3.26;100.00
39301;BME280;25019;42.626;23.380;2022-12-13T06:43:58;94033.25;;;-3.62;100.00
39301;BME280;25019;42.626;23.380;2022-12-13T06:46:24;94099.84;;;-3.06;100.00
39301;BME280;25019;42.626;23.380;2022-12-13T06:48:50;94099.34;;;-3.02;100.00
39301;BME280;25019;42.626;23.380;2022-12-13T06:51:16;94107.16;;;-3.02;100.00
39301;BME280;25019;42.626;23.380;2022-12-13T06:53:42;94099.06;;;-3.07;100.00
39301;BME280;25019;42.626;23.380;2022-12-13T06:56:10;93944.78;;;-4.07;100.00
39301;BME280;25019;42.626;23.380;2022-12-13T06:58:37;94093.50;;;-3.04;100.00
39301;BME280;25019;42.626;23.380;2022-12-13T07:03:29;94095.59;;;-2.99;100.00
39301;BME280;25019;42.626;23.380;2022-12-13T07:06:02;94100.47;;;-3.04;100.00
39301;BME280;25019;42.626;23.380;2022-12-13T07:08:29;94100.97;;;-3.01;100.00
39301;BME280;25019;42.626;23.380;2022-12-13T07:10:56;94106.72;;;-2.90;100.00
39301;BME280;25019;42.626;23.380;2022-12-13T07:13:22;94099.31;;;-2.93;100.00
39301;BME280;25019;42.626;23.380;2022-12-13T07:15:48;94112.34;;;-2.78;100.00
39301;BME280;25019;42.626;23.380;2022-12-13T07:18:16;94116.69;;;-2.71;100.00
39301;BME280;25019;42.626;23.380;2022-12-13T07:20:42;94117.78;;;-2.65;100.00
39301;BME280;25019;42.626;23.380;2022-12-13T07:23:08;94108.31;;;-2.81;100.00
39301;BME280;25019;42.626;23.380;2022-12-13T07:25:34;94130.00;;;-2.65;100.00
39301;BME280;25019;42.626;23.380;2022-12-13T07:28:05;94087.06;;;-2.84;100.00
39301;BME280;25019;42.626;23.380;2022-12-13T07:30:32;94127.97;;;-2.55;100.00
39301;BME280;25019;42.626;23.380;2022-12-13T07:33:03;94129.41;;;-2.52;100.00
39301;BME280;25019;42.626;23.380;2022-12-13T07:35:29;94141.34;;;-2.43;100.00
39301;BME280;25019;42.626;23.380;2022-12-13T07:37:55;94047.16;;;-2.92;100.00
39301;BME280;25019;42.626;23.380;2022-12-13T07:40:21;94134.53;;;-2.44;100.00
39301;BME280;25019;42.626;23.380;2022-12-13T07:42:54;94103.22;;;-2.74;100.00
39301;BME280;25019;42.626;23.380;2022-12-13T07:45:23;94126.03;;;-2.61;100.00
39301;BME280;25019;42.626;23.380;2022-12-13T07:47:48;94143.09;;;-2.59;100.00
39301;BME280;25019;42.626;23.380;2022-12-13T07:50:14;94018.41;;;-3.13;100.00
39301;BME280;25019;42.626;23.380;2022-12-13T07:52:40;94136.50;;;-2.23;100.00
39301;BME280;25019;42.626;23.380;2022-12-13T07:55:07;94139.44;;;-2.26;100.00
39301;BME280;25019;42.626;23.380;2022-12-13T07:57:32;94131.34;;;-2.31;100.00
39301;BME280;25019;42.626;23.380;2022-12-13T07:59:58;94143.50;;;-2.23;100.00
39301;BME280;25019;42.626;23.380;2022-12-13T08:02:24;94142.63;;;-2.16;100.00
39301;BME280;25019;42.626;23.380;2022-12-13T08:04:50;94137.88;;;-2.12;100.00
39301;BME280;25019;42.626;23.380;2022-12-13T08:07:15;94153.91;;;-2.23;100.00
39301;BME280;25019;42.626;23.380;2022-12-13T08:09:41;94058.28;;;-2.83;100.00
39301;BME280;25019;42.626;23.380;2022-12-13T08:12:06;94159.94;;;-2.08;100.00
39301;BME280;25019;42.626;23.380;2022-12-13T08:14:32;94134.91;;;-2.09;100.00
39301;BME280;25019;42.626;23.380;2022-12-13T08:16:59;94160.41;;;-2.04;100.00
39301;BME280;25019;42.626;23.380;2022-12-13T08:19:24;94152.84;;;-2.14;100.00
39301;BME280;25019;42.626;23.380;2022-12-13T08:21:50;94161.00;;;-2.17;100.00
39301;BME280;25019;42.626;23.380;2022-12-13T08:24:17;94156.66;;;-2.25;100.00
39301;BME280;25019;42.626;23.380;2022-12-13T08:26:43;94154.59;;;-2.53;100.00
39301;BME280;25019;42.626;23.380;2022-12-13T08:29:09;94172.47;;;-2.50;100.00
39301;BME280;25019;42.626;23.380;2022-12-13T08:31:36;94176.22;;;-2.52;100.00
39301;BME280;25019;42.626;23.380;2022-12-13T08:34:01;94066.94;;;-3.14;100.00
39301;BME280;25019;42.626;23.380;2022-12-13T08:36:27;94150.97;;;-2.44;100.00
39301;BME280;25019;42.626;23.380;2022-12-13T08:38:56;94073.09;;;-2.83;100.00
39301;BME280;25019;42.626;23.380;2022-12-13T08:41:22;94123.41;;;-2.53;100.00
39301;BME280;25019;42.626;23.380;2022-12-13T08:43:48;94149.06;;;-2.27;100.00
39301;BME280;25019;42.626;23.380;2022-12-13T08:46:14;94142.09;;;-2.11;100.00
39301;BME280;25019;42.626;23.380;2022-12-13T08:48:39;94128.50;;;-2.21;100.00
39301;BME280;25019;42.626;23.380;2022-12-13T08:51:07;94130.06;;;-2.12;100.00
39301;BME280;25019;42.626;23.380;2022-12-13T08:53:34;94121.47;;;-2.13;100.00
39301;BME280;25019;42.626;23.380;2022-12-13T08:56:02;94103.13;;;-2.19;100.00
39301;BME280;25019;42.626;23.380;2022-12-13T08:58:28;94048.50;;;-2.58;100.00
39301;BME280;25019;42.626;23.380;2022-12-13T09:00:54;94122.69;;;-2.08;100.00
39301;BME280;25019;42.626;23.380;2022-12-13T09:03:20;94117.50;;;-1.93;100.00
39301;BME280;25019;42.626;23.380;2022-12-13T09:05:47;94120.03;;;-1.85;100.00
39301;BME280;25019;42.626;23.380;2022-12-13T09:08:13;94109.72;;;-1.93;100.00
39301;BME280;25019;42.626;23.380;2022-12-13T09:10:39;94061.59;;;-2.28;100.00
39301;BME280;25019;42.626;23.380;2022-12-13T09:13:05;94125.59;;;-1.88;100.00
39301;BME280;25019;42.626;23.380;2022-12-13T09:15:31;94116.28;;;-1.83;100.00
39301;BME280;25019;42.626;23.380;2022-12-13T09:17:57;94030.09;;;-2.33;100.00
39301;BME280;25019;42.626;23.380;2022-12-13T09:20:23;94094.91;;;-1.78;100.00
39301;BME280;25019;42.626;23.380;2022-12-13T09:22:49;94112.78;;;-1.75;100.00
39301;BME280;25019;42.626;23.380;2022-12-13T09:25:15;94042.41;;;-2.12;100.00
39301;BME280;25019;42.626;23.380;2022-12-13T09:27:41;94108.56;;;-1.61;100.00
39301;BME280;25019;42.626;23.380;2022-12-13T09:30:08;94104.16;;;-1.75;100.00
39301;BME280;25019;42.626;23.380;2022-12-13T09:32:37;94105.41;;;-1.71;100.00
39301;BME280;25019;42.626;23.380;2022-12-13T09:35:03;94094.09;;;-1.63;100.00
39301;BME280;25019;42.626;23.380;2022-12-13T09:37:29;94098.88;;;-1.52;100.00
39301;BME280;25019;42.626;23.380;2022-12-13T09:39:54;94097.16;;;-1.45;100.00
39301;BME280;25019;42.626;23.380;2022-12-13T09:42:23;94094.63;;;-1.38;100.00
39301;BME280;25019;42.626;23.380;2022-12-13T09:44:55;94089.69;;;-1.33;100.00
39301;BME280;25019;42.626;23.380;2022-12-13T09:47:35;94086.47;;;-1.35;100.00
39301;BME280;25019;42.626;23.380;2022-12-13T09:50:06;94084.50;;;-1.48;100.00
39301;BME280;25019;42.626;23.380;2022-12-13T09:52:38;94088.00;;;-1.41;100.00
39301;BME280;25019;42.626;23.380;2022-12-13T09:55:38;93936.25;;;-2.46;100.00
39301;BME280;25019;42.626;23.380;2022-12-13T09:58:10;94081.72;;;-1.76;100.00
39301;BME280;25019;42.626;23.380;2022-12-13T10:00:39;94070.59;;;-1.85;100.00
39301;BME280;25019;42.626;23.380;2022-12-13T10:03:05;94081.34;;;-1.88;100.00
39301;BME280;25019;42.626;23.380;2022-12-13T10:05:37;94071.75;;;-1.88;100.00
39301;BME280;25019;42.626;23.380;2022-12-13T10:08:10;94061.63;;;-1.83;100.00
39301;BME280;25019;42.626;23.380;2022-12-13T10:10:37;94078.03;;;-1.82;100.00
39301;BME280;25019;42.626;23.380;2022-12-13T10:16:00;94075.16;;;-1.87;100.00
39301;BME280;25019;42.626;23.380;2022-12-13T10:18:34;93993.09;;;-2.43;100.00
39301;BME280;25019;42.626;23.380;2022-12-13T10:21:03;94072.28;;;-1.92;100.00
39301;BME280;25019;42.626;23.380;2022-12-13T10:23:29;93962.00;;;-2.51;100.00
39301;BME280;25019;42.626;23.380;2022-12-13T10:25:55;94051.28;;;-1.91;100.00
39301;BME280;25019;42.626;23.380;2022-12-13T10:28:31;93991.06;;;-2.33;100.00
39301;BME280;25019;42.626;23.380;2022-12-13T10:30:58;94003.19;;;-2.25;100.00
39301;BME280;25019;42.626;23.380;2022-12-13T10:38:41;94020.13;;;-1.69;100.00
39301;BME280;25019;42.626;23.380;2022-12-13T10:46:39;94018.13;;;-1.52;100.00
39301;BME280;25019;42.626;23.380;2022-12-13T10:49:18;94018.25;;;-1.39;100.00
39301;BME280;25019;42.626;23.380;2022-12-13T10:51:45;93933.78;;;-1.88;100.00
39301;BME280;25019;42.626;23.380;2022-12-13T10:54:38;94004.63;;;-1.41;100.00
39301;BME280;25019;42.626;23.380;2022-12-13T10:57:03;94024.00;;;-1.28;100.00
39301;BME280;25019;42.626;23.380;2022-12-13T11:01:55;93953.56;;;-1.57;100.00
39301;BME280;25019;42.626;23.380;2022-12-13T11:04:27;94003.28;;;-1.15;100.00
39301;BME280;25019;42.626;23.380;2022-12-13T11:06:55;93995.59;;;-1.23;100.00
39301;BME280;25019;42.626;23.380;2022-12-13T11:11:51;94000.88;;;-1.16;100.00
39301;BME280;25019;42.626;23.380;2022-12-13T11:14:19;94002.59;;;-1.24;100.00
39301;BME280;25019;42.626;23.380;2022-12-13T11:16:51;94010.50;;;-1.17;100.00
39301;BME280;25019;42.626;23.380;2022-12-13T11:19:23;93991.47;;;-1.11;100.00
39301;BME280;25019;42.626;23.380;2022-12-13T11:21:50;93980.06;;;-1.10;100.00
39301;BME280;25019;42.626;23.380;2022-12-13T11:24:27;93981.50;;;-1.07;100.00
39301;BME280;25019;42.626;23.380;2022-12-13T11:26:59;93979.84;;;-1.15;100.00
39301;BME280;25019;42.626;23.380;2022-12-13T11:29:46;93981.13;;;-1.04;100.00
39301;BME280;25019;42.626;23.380;2022-12-13T11:35:20;93816.13;;;-2.20;100.00
39301;BME280;25019;42.626;23.380;2022-12-13T11:40:47;93993.34;;;-1.04;100.00
39301;BME280;25019;42.626;23.380;2022-12-13T11:45:57;93934.09;;;-1.39;100.00
39301;BME280;25019;42.626;23.380;2022-12-13T11:50:54;93991.25;;;-0.94;100.00
39301;BME280;25019;42.626;23.380;2022-12-13T11:53:34;93982.56;;;-1.01;100.00
39301;BME280;25019;42.626;23.380;2022-12-13T11:56:24;93980.31;;;-1.04;100.00
39301;BME280;25019;42.626;23.380;2022-12-13T12:01:48;93978.63;;;-0.91;100.00
39301;BME280;25019;42.626;23.380;2022-12-13T12:07:12;93921.59;;;-1.29;100.00
39301;BME280;25019;42.626;23.380;2022-12-13T12:09:42;93979.72;;;-0.85;100.00
39301;BME280;25019;42.626;23.380;2022-12-13T12:12:29;93971.72;;;-0.77;100.00
39301;BME280;25019;42.626;23.380;2022-12-13T12:15:09;93952.06;;;-0.79;100.00
39301;BME280;25019;42.626;23.380;2022-12-13T12:17:37;93879.13;;;-1.23;100.00
39301;BME280;25019;42.626;23.380;2022-12-13T12:20:04;93847.72;;;-1.43;100.00
39301;BME280;25019;42.626;23.380;2022-12-13T12:22:58;93965.69;;;-0.55;100.00
39301;BME280;25019;42.626;23.380;2022-12-13T12:25:38;93968.53;;;-0.50;100.00
39301;BME280;25019;42.626;23.380;2022-12-13T12:45:10;93969.31;;;-0.78;100.00
39301;BME280;25019;42.626;23.380;2022-12-13T12:47:44;93986.50;;;-0.62;100.00
39301;BME280;25019;42.626;23.380;2022-12-13T12:50:25;93982.09;;;-0.62;100.00
39301;BME280;25019;42.626;23.380;2022-12-13T12:53:04;93983.44;;;-0.66;100.00
39301;BME280;25019;42.626;23.380;2022-12-13T13:01:29;93990.47;;;-0.66;100.00
39301;BME280;25019;42.626;23.380;2022-12-13T13:04:05;94002.41;;;-0.57;100.00
39301;BME280;25019;42.626;23.380;2022-12-13T13:06:43;93968.88;;;-0.82;100.00
39301;BME280;25019;42.626;23.380;2022-12-13T13:09:11;94011.97;;;-0.64;100.00
39301;BME280;25019;42.626;23.380;2022-12-13T13:11:40;94016.31;;;-0.71;100.00
39301;BME280;25019;42.626;23.380;2022-12-13T13:19:52;93953.41;;;-1.12;100.00
39301;BME280;25019;42.626;23.380;2022-12-13T13:22:33;94035.25;;;-0.63;100.00
39301;BME280;25019;42.626;23.380;2022-12-13T13:27:42;94003.22;;;-0.78;100.00
39301;BME280;25019;42.626;23.380;2022-12-13T13:32:44;94027.38;;;-0.69;100.00
39301;BME280;25019;42.626;23.380;2022-12-13T13:38:02;94059.28;;;-0.67;100.00
39301;BME280;25019;42.626;23.380;2022-12-13T13:40:29;94056.75;;;-0.61;100.00
39301;BME280;25019;42.626;23.380;2022-12-13T13:45:23;94054.06;;;-0.67;100.00
39301;BME280;25019;42.626;23.380;2022-12-13T14:04:37;94035.94;;;-0.76;100.00
39301;BME280;25019;42.626;23.380;2022-12-13T14:22:12;94011.00;;;-0.85;100.00
39301;BME280;25019;42.626;23.380;2022-12-13T14:27:20;94031.66;;;-0.83;100.00
39301;BME280;25019;42.626;23.380;2022-12-13T14:29:48;93975.00;;;-1.18;100.00
39301;BME280;25019;42.626;23.380;2022-12-13T14:32:21;94025.19;;;-0.87;100.00
39301;BME280;25019;42.626;23.380;2022-12-13T14:34:47;93997.16;;;-1.07;100.00
39301;BME280;25019;42.626;23.380;2022-12-13T14:37:27;93999.56;;;-1.06;100.00
39301;BME280;25019;42.626;23.380;2022-12-13T14:39:55;93967.66;;;-1.29;100.00
39301;BME280;25019;42.626;23.380;2022-12-13T14:42:29;93987.94;;;-1.25;100.00
39301;BME280;25019;42.626;23.380;2022-12-13T14:45:26;93987.16;;;-1.25;100.00
39301;BME280;25019;42.626;23.380;2022-12-13T14:47:58;93991.84;;;-1.36;100.00
39301;BME280;25019;42.626;23.380;2022-12-13T14:50:26;94022.69;;;-1.17;100.00
39301;BME280;25019;42.626;23.380;2022-12-13T14:52:53;94005.75;;;-1.28;100.00
39301;BME280;25019;42.626;23.380;2022-12-13T14:55:34;94023.69;;;-1.18;100.00
39301;BME280;25019;42.626;23.380;2022-12-13T14:58:02;94025.50;;;-1.19;100.00
39301;BME280;25019;42.626;23.380;2022-12-13T15:00:34;94035.72;;;-1.17;100.00
39301;BME280;25019;42.626;23.380;2022-12-13T15:03:03;94030.72;;;-1.19;100.00
39301;BME280;25019;42.626;23.380;2022-12-13T15:05:41;94028.47;;;-1.22;100.00